createdAt,value
2018-05-21T00:00:34.567Z,0.00
2018-05-21T00:01:34.557Z,0.00
2018-05-21T00:02:34.543Z,0.00
2018-05-21T00:03:34.529Z,0.00
2018-05-21T00:04:34.520Z,0.00
2018-05-21T00:05:34.506Z,0.00
2018-05-21T00:06:34.504Z,0.00
2018-05-21T00:07:34.483Z,0.00
2018-05-21T00:08:34.467Z,0.00
2018-05-21T00:09:34.457Z,0.00
2018-05-21T00:10:34.449Z,0.00
2018-05-21T00:11:34.431Z,0.00
2018-05-21T00:12:34.419Z,0.00
2018-05-21T00:13:34.409Z,0.00
2018-05-21T00:14:34.394Z,0.00
2018-05-21T00:15:34.418Z,0.00
2018-05-21T00:16:34.379Z,0.00
2018-05-21T00:17:34.363Z,0.00
2018-05-21T00:18:34.347Z,0.00
2018-05-21T00:19:34.345Z,0.00
2018-05-21T00:20:34.329Z,0.00
2018-05-21T00:21:34.319Z,0.00
2018-05-21T00:22:34.305Z,0.00
2018-05-21T00:23:34.290Z,0.00
2018-05-21T00:24:34.277Z,0.00
2018-05-21T00:25:34.268Z,0.00
2018-05-21T00:26:34.252Z,0.00
2018-05-21T00:27:34.243Z,0.00
2018-05-21T00:28:34.226Z,0.00
2018-05-21T00:29:34.220Z,0.00
2018-05-21T00:30:34.205Z,0.00
2018-05-21T00:31:34.197Z,0.00
2018-05-21T00:32:34.181Z,0.00
2018-05-21T00:33:34.169Z,0.00
2018-05-21T00:34:34.159Z,0.00
2018-05-21T00:35:34.151Z,0.00
2018-05-21T00:36:34.151Z,0.00
2018-05-21T00:37:34.129Z,0.00
2018-05-21T00:38:34.118Z,0.00
2018-05-21T00:39:34.101Z,0.00
2018-05-21T00:40:34.089Z,0.00
2018-05-21T00:41:34.076Z,0.00
2018-05-21T00:42:34.060Z,0.00
2018-05-21T00:43:34.065Z,0.00
2018-05-21T00:44:34.042Z,0.00
2018-05-21T00:45:34.030Z,0.00
2018-05-21T00:46:34.020Z,0.00
2018-05-21T00:47:34.005Z,0.00
2018-05-21T00:48:33.994Z,0.00
2018-05-21T00:49:33.980Z,0.00
2018-05-21T00:50:33.968Z,0.00
2018-05-21T00:51:33.954Z,0.00
2018-05-21T00:52:33.944Z,0.00
2018-05-21T00:53:33.934Z,0.00
2018-05-21T00:54:33.931Z,0.00
2018-05-21T00:55:33.909Z,0.00
2018-05-21T00:56:33.893Z,0.00
2018-05-21T00:57:33.881Z,0.00
2018-05-21T00:58:33.869Z,0.00
2018-05-21T00:59:33.859Z,0.00
2018-05-21T01:00:33.849Z,0.00
2018-05-21T01:01:33.836Z,0.00
2018-05-21T01:02:33.823Z,0.00
2018-05-21T01:03:33.811Z,0.00
2018-05-21T01:04:33.805Z,0.00
2018-05-21T01:05:33.788Z,0.00
2018-05-21T01:06:33.776Z,0.00
2018-05-21T01:07:33.758Z,0.00
2018-05-21T01:08:33.755Z,0.00
2018-05-21T01:09:33.742Z,0.00
2018-05-21T01:10:33.732Z,0.00
2018-05-21T01:11:33.717Z,0.00
2018-05-21T01:12:33.706Z,0.00
2018-05-21T01:13:33.688Z,0.00
2018-05-21T01:14:33.679Z,0.00
2018-05-21T01:15:33.667Z,0.00
2018-05-21T01:16:33.653Z,0.00
2018-05-21T01:17:33.644Z,0.00
2018-05-21T01:18:33.632Z,0.00
2018-05-21T01:19:33.619Z,0.00
2018-05-21T01:20:33.604Z,0.00
2018-05-21T01:21:33.592Z,0.00
2018-05-21T01:22:33.579Z,0.00
2018-05-21T01:23:33.569Z,0.00
2018-05-21T01:24:33.557Z,0.00
2018-05-21T01:25:33.545Z,0.00
2018-05-21T01:26:33.534Z,0.00
2018-05-21T01:27:33.514Z,0.00
2018-05-21T01:28:33.508Z,0.00
2018-05-21T01:29:33.498Z,0.00
2018-05-21T01:30:33.484Z,0.00
2018-05-21T01:31:33.474Z,0.00
2018-05-21T01:32:33.457Z,0.00
2018-05-21T01:33:33.448Z,0.00
2018-05-21T01:34:33.435Z,0.00
2018-05-21T01:35:33.425Z,0.00
2018-05-21T01:36:33.412Z,0.00
2018-05-21T01:37:33.400Z,0.00
2018-05-21T01:38:33.385Z,0.00
2018-05-21T01:39:33.373Z,0.00
2018-05-21T01:40:33.363Z,0.00
2018-05-21T01:41:33.345Z,0.00
2018-05-21T01:42:33.335Z,0.00
2018-05-21T01:43:33.329Z,0.00
2018-05-21T01:44:33.316Z,0.00
2018-05-21T01:45:33.300Z,0.00
2018-05-21T01:46:33.287Z,0.00
2018-05-21T01:47:33.275Z,0.00
2018-05-21T01:48:33.261Z,0.00
2018-05-21T01:49:33.253Z,0.00
2018-05-21T01:50:33.242Z,0.00
2018-05-21T01:51:33.228Z,0.00
2018-05-21T01:52:33.220Z,0.00
2018-05-21T01:53:33.202Z,0.00
2018-05-21T01:54:33.191Z,0.00
2018-05-21T01:55:33.177Z,0.00
2018-05-21T01:56:33.168Z,0.00
2018-05-21T01:57:33.156Z,0.00
2018-05-21T01:58:33.143Z,0.00
2018-05-21T01:59:33.130Z,0.00
2018-05-21T02:00:33.118Z,0.00
2018-05-21T02:01:33.108Z,0.00
2018-05-21T02:02:33.091Z,0.00
2018-05-21T02:03:33.086Z,0.00
2018-05-21T02:04:33.073Z,0.00
2018-05-21T02:05:33.056Z,0.00
2018-05-21T02:06:33.046Z,0.00
2018-05-21T02:07:33.029Z,0.00
2018-05-21T02:08:33.067Z,0.00
2018-05-21T02:09:33.012Z,0.00
2018-05-21T02:10:33.001Z,0.00
2018-05-21T02:11:32.983Z,0.00
2018-05-21T02:12:32.974Z,0.00
2018-05-21T02:13:32.955Z,0.00
2018-05-21T02:14:32.950Z,0.00
2018-05-21T02:15:32.939Z,0.00
2018-05-21T02:16:32.925Z,0.00
2018-05-21T02:17:32.913Z,0.00
2018-05-21T02:18:32.899Z,0.00
2018-05-21T02:19:32.887Z,0.00
2018-05-21T02:20:32.913Z,0.00
2018-05-21T02:21:32.864Z,0.00
2018-05-21T02:22:32.850Z,0.00
2018-05-21T02:23:32.835Z,0.00
2018-05-21T02:24:32.828Z,0.00
2018-05-21T02:25:32.811Z,0.00
2018-05-21T02:26:32.800Z,0.00
2018-05-21T02:27:32.791Z,0.00
2018-05-21T02:28:32.778Z,0.00
2018-05-21T02:29:32.772Z,0.00
2018-05-21T02:30:32.750Z,0.00
2018-05-21T02:31:32.747Z,0.00
2018-05-21T02:32:32.732Z,0.00
2018-05-21T02:33:32.712Z,0.00
2018-05-21T02:34:32.716Z,0.00
2018-05-21T02:35:32.691Z,0.00
2018-05-21T02:36:32.680Z,0.00
2018-05-21T02:37:32.666Z,0.00
2018-05-21T02:38:32.654Z,0.00
2018-05-21T02:39:32.646Z,0.00
2018-05-21T02:40:32.632Z,0.00
2018-05-21T02:41:32.623Z,0.00
2018-05-21T02:42:32.606Z,0.00
2018-05-21T02:43:32.594Z,0.00
2018-05-21T02:44:32.584Z,0.00
2018-05-21T02:45:32.569Z,0.00
2018-05-21T02:46:32.563Z,0.00
2018-05-21T02:47:32.550Z,0.00
2018-05-21T02:48:32.538Z,0.00
2018-05-21T02:49:32.527Z,0.00
2018-05-21T02:50:32.508Z,0.00
2018-05-21T02:51:32.496Z,0.00
2018-05-21T02:52:32.487Z,0.00
2018-05-21T02:53:32.476Z,0.00
2018-05-21T02:54:32.457Z,0.00
2018-05-21T02:55:32.449Z,0.00
2018-05-21T02:56:32.439Z,0.00
2018-05-21T02:57:32.425Z,0.00
2018-05-21T02:58:32.417Z,0.00
2018-05-21T02:59:32.400Z,0.00
2018-05-21T03:00:32.388Z,0.00
2018-05-21T03:01:32.370Z,0.00
2018-05-21T03:02:32.365Z,0.00
2018-05-21T03:03:32.351Z,0.00
2018-05-21T03:04:32.339Z,0.00
2018-05-21T03:05:32.325Z,0.00
2018-05-21T03:06:32.317Z,0.00
2018-05-21T03:07:32.305Z,0.00
2018-05-21T03:08:32.294Z,0.00
2018-05-21T03:09:32.281Z,0.00
2018-05-21T03:10:32.267Z,0.00
2018-05-21T03:11:32.252Z,0.00
2018-05-21T03:12:32.240Z,0.00
2018-05-21T03:13:32.271Z,0.00
2018-05-21T03:14:32.216Z,0.00
2018-05-21T03:15:32.205Z,0.00
2018-05-21T03:16:32.194Z,0.00
2018-05-21T03:17:32.183Z,0.00
2018-05-21T03:18:32.167Z,0.00
2018-05-21T03:19:32.153Z,0.00
2018-05-21T03:20:32.148Z,0.00
2018-05-21T03:21:32.131Z,0.00
2018-05-21T03:22:32.123Z,4.00
2018-05-21T03:23:32.113Z,0.00
2018-05-21T03:24:32.103Z,0.00
2018-05-21T03:25:32.081Z,0.00
2018-05-21T03:26:32.070Z,4.00
2018-05-21T03:27:32.059Z,0.00
2018-05-21T03:28:32.049Z,0.00
2018-05-21T03:29:32.037Z,4.00
2018-05-21T03:30:32.023Z,0.00
2018-05-21T03:31:32.007Z,4.00
2018-05-21T03:32:31.997Z,4.00
2018-05-21T03:33:31.989Z,4.00
2018-05-21T03:34:31.975Z,4.00
2018-05-21T03:35:31.962Z,4.00
2018-05-21T03:36:31.956Z,4.00
2018-05-21T03:37:31.938Z,8.00
2018-05-21T03:38:31.922Z,4.00
2018-05-21T03:39:31.913Z,8.00
2018-05-21T03:40:31.900Z,8.00
2018-05-21T03:41:31.890Z,8.00
2018-05-21T03:42:31.868Z,8.00
2018-05-21T03:43:31.861Z,8.00
2018-05-21T03:44:31.853Z,8.00
2018-05-21T03:45:31.868Z,12.00
2018-05-21T03:46:31.823Z,12.00
2018-05-21T03:47:31.813Z,12.00
2018-05-21T03:48:31.801Z,12.00
2018-05-21T03:49:31.791Z,12.00
2018-05-21T03:50:31.771Z,12.00
2018-05-21T03:51:31.762Z,16.00
2018-05-21T03:52:31.752Z,16.00
2018-05-21T03:53:31.744Z,16.00
2018-05-21T03:54:31.728Z,16.00
2018-05-21T03:55:31.712Z,16.00
2018-05-21T03:56:31.699Z,16.00
2018-05-21T03:57:31.686Z,20.00
2018-05-21T03:58:31.682Z,24.00
2018-05-21T03:59:31.665Z,20.00
2018-05-21T04:00:31.647Z,24.00
2018-05-21T04:01:31.643Z,24.00
2018-05-21T04:02:31.632Z,24.00
2018-05-21T04:03:31.616Z,28.00
2018-05-21T04:04:31.704Z,28.00
2018-05-21T04:05:31.592Z,32.00
2018-05-21T04:06:31.576Z,32.00
2018-05-21T04:07:31.564Z,32.00
2018-05-21T04:08:31.551Z,36.00
2018-05-21T04:09:31.541Z,40.00
2018-05-21T04:10:31.533Z,40.00
2018-05-21T04:11:31.517Z,40.00
2018-05-21T04:12:31.504Z,40.00
2018-05-21T04:13:31.493Z,44.00
2018-05-21T04:14:31.484Z,44.00
2018-05-21T04:15:31.469Z,44.00
2018-05-21T04:16:31.457Z,44.00
2018-05-21T04:17:31.449Z,48.00
2018-05-21T04:18:31.431Z,48.00
2018-05-21T04:19:31.421Z,48.00
2018-05-21T04:20:31.404Z,48.00
2018-05-21T04:21:31.395Z,48.00
2018-05-21T04:22:31.385Z,52.00
2018-05-21T04:23:31.375Z,52.00
2018-05-21T04:24:31.356Z,48.00
2018-05-21T04:25:31.406Z,52.00
2018-05-21T04:26:31.331Z,52.00
2018-05-21T04:27:31.322Z,52.00
2018-05-21T04:28:31.310Z,56.00
2018-05-21T04:29:31.296Z,56.00
2018-05-21T04:30:31.286Z,56.00
2018-05-21T04:31:31.273Z,56.00
2018-05-21T04:32:31.259Z,56.00
2018-05-21T04:33:31.247Z,60.00
2018-05-21T04:34:31.228Z,60.00
2018-05-21T04:35:31.227Z,60.00
2018-05-21T04:36:31.235Z,60.00
2018-05-21T04:37:31.194Z,60.00
2018-05-21T04:38:31.188Z,64.00
2018-05-21T04:39:31.171Z,64.00
2018-05-21T04:40:31.159Z,68.00
2018-05-21T04:41:31.146Z,68.00
2018-05-21T04:42:31.134Z,64.00
2018-05-21T04:43:31.128Z,68.00
2018-05-21T04:44:31.112Z,68.00
2018-05-21T04:45:31.098Z,72.00
2018-05-21T04:46:31.084Z,72.00
2018-05-21T04:47:31.082Z,72.00
2018-05-21T04:48:31.084Z,72.00
2018-05-21T04:49:31.051Z,76.00
2018-05-21T04:50:31.038Z,76.00
2018-05-21T04:51:31.023Z,80.00
2018-05-21T04:52:31.010Z,80.00
2018-05-21T04:53:31.007Z,80.00
2018-05-21T04:54:30.989Z,80.00
2018-05-21T04:55:30.974Z,80.00
2018-05-21T04:56:30.966Z,84.00
2018-05-21T04:57:30.953Z,84.00
2018-05-21T04:58:30.944Z,84.00
2018-05-21T04:59:30.930Z,84.00
2018-05-21T05:00:30.916Z,88.00
2018-05-21T05:01:30.907Z,84.00
2018-05-21T05:02:30.886Z,88.00
2018-05-21T05:03:30.880Z,88.00
2018-05-21T05:04:30.873Z,92.00
2018-05-21T05:05:30.852Z,92.00
2018-05-21T05:06:30.840Z,92.00
2018-05-21T05:07:30.831Z,92.00
2018-05-21T05:08:30.815Z,92.00
2018-05-21T05:09:30.803Z,92.00
2018-05-21T05:10:30.793Z,96.00
2018-05-21T05:11:30.783Z,96.00
2018-05-21T05:12:30.763Z,96.00
2018-05-21T05:13:30.754Z,96.00
2018-05-21T05:14:30.742Z,100.00
2018-05-21T05:15:30.730Z,96.00
2018-05-21T05:16:30.720Z,100.00
2018-05-21T05:17:30.709Z,100.00
2018-05-21T05:18:30.688Z,104.00
2018-05-21T05:19:30.683Z,100.00
2018-05-21T05:20:30.674Z,104.00
2018-05-21T05:21:30.657Z,104.00
2018-05-21T05:22:30.641Z,104.00
2018-05-21T05:23:30.633Z,100.00
2018-05-21T05:24:30.619Z,104.00
2018-05-21T05:25:30.610Z,108.00
2018-05-21T05:26:30.661Z,104.00
2018-05-21T05:27:30.582Z,104.00
2018-05-21T05:28:30.569Z,108.00
2018-05-21T05:29:30.559Z,108.00
2018-05-21T05:30:30.546Z,108.00
2018-05-21T05:31:30.533Z,112.00
2018-05-21T05:32:30.524Z,108.00
2018-05-21T05:33:30.507Z,112.00
2018-05-21T05:34:30.502Z,108.00
2018-05-21T05:35:30.481Z,112.00
2018-05-21T05:36:30.473Z,112.00
2018-05-21T05:37:30.457Z,112.00
2018-05-21T05:38:30.448Z,112.00
2018-05-21T05:39:30.437Z,112.00
2018-05-21T05:40:30.418Z,116.00
2018-05-21T05:41:30.410Z,116.00
2018-05-21T05:42:30.393Z,116.00
2018-05-21T05:43:30.382Z,116.00
2018-05-21T05:44:30.381Z,116.00
2018-05-21T05:45:30.363Z,120.00
2018-05-21T05:46:30.346Z,120.00
2018-05-21T05:47:30.334Z,120.00
2018-05-21T05:48:30.325Z,124.00
2018-05-21T05:49:30.310Z,120.00
2018-05-21T05:50:30.292Z,124.00
2018-05-21T05:51:30.286Z,120.00
2018-05-21T05:52:30.272Z,124.00
2018-05-21T05:53:30.263Z,124.00
2018-05-21T05:54:30.246Z,124.00
2018-05-21T05:55:30.245Z,124.00
2018-05-21T05:56:30.230Z,128.00
2018-05-21T05:57:30.212Z,128.00
2018-05-21T05:58:30.197Z,128.00
2018-05-21T05:59:30.187Z,132.00
2018-05-21T06:00:30.178Z,144.00
2018-05-21T06:01:30.160Z,180.00
2018-05-21T06:02:30.151Z,224.00
2018-05-21T06:03:30.140Z,328.00
2018-05-21T06:04:30.122Z,404.00
2018-05-21T06:05:30.113Z,440.00
2018-05-21T06:06:30.101Z,444.00
2018-05-21T06:07:30.090Z,452.00
2018-05-21T06:08:30.081Z,456.00
2018-05-21T06:09:30.074Z,460.00
2018-05-21T06:10:30.051Z,464.00
2018-05-21T06:11:30.043Z,464.00
2018-05-21T06:12:30.027Z,464.00
2018-05-21T06:13:30.019Z,460.00
2018-05-21T06:14:30.003Z,476.00
2018-05-21T06:15:30.000Z,484.00
2018-05-21T06:16:29.986Z,484.00
2018-05-21T06:17:29.968Z,492.00
2018-05-21T06:18:29.955Z,496.00
2018-05-21T06:19:29.945Z,500.00
2018-05-21T06:20:29.930Z,508.00
2018-05-21T06:21:29.921Z,508.00
2018-05-21T06:22:29.908Z,516.00
2018-05-21T06:23:29.899Z,520.00
2018-05-21T06:24:29.884Z,524.00
2018-05-21T06:25:29.875Z,524.00
2018-05-21T06:26:29.863Z,532.00
2018-05-21T06:27:29.853Z,536.00
2018-05-21T06:28:29.833Z,540.00
2018-05-21T06:29:29.825Z,548.00
2018-05-21T06:30:29.817Z,548.00
2018-05-21T06:31:29.806Z,552.00
2018-05-21T06:32:29.794Z,560.00
2018-05-21T06:33:29.782Z,564.00
2018-05-21T06:34:29.809Z,572.00
2018-05-21T06:35:29.757Z,576.00
2018-05-21T06:36:29.745Z,576.00
2018-05-21T06:37:29.735Z,580.00
2018-05-21T06:38:29.725Z,588.00
2018-05-21T06:39:29.712Z,596.00
2018-05-21T06:40:29.702Z,600.00
2018-05-21T06:41:29.690Z,604.00
2018-05-21T06:42:29.682Z,608.00
2018-05-21T06:43:29.662Z,612.00
2018-05-21T06:44:29.660Z,620.00
2018-05-21T06:45:29.706Z,620.00
2018-05-21T06:46:29.630Z,628.00
2018-05-21T06:47:29.625Z,632.00
2018-05-21T06:48:29.611Z,636.00
2018-05-21T06:49:29.597Z,640.00
2018-05-21T06:50:29.589Z,648.00
2018-05-21T06:51:29.573Z,648.00
2018-05-21T06:52:29.568Z,652.00
2018-05-21T06:53:29.556Z,656.00
2018-05-21T06:54:29.549Z,660.00
2018-05-21T06:55:29.535Z,664.00
2018-05-21T06:56:29.520Z,668.00
2018-05-21T06:57:29.514Z,676.00
2018-05-21T06:58:29.503Z,680.00
2018-05-21T06:59:29.488Z,688.00
2018-05-21T07:00:29.484Z,688.00
2018-05-21T07:01:29.470Z,692.00
2018-05-21T07:02:29.457Z,696.00
2018-05-21T07:03:29.446Z,700.00
2018-05-21T07:04:29.438Z,704.00
2018-05-21T07:05:29.427Z,708.00
2018-05-21T07:06:29.415Z,712.00
2018-05-21T07:07:29.412Z,716.00
2018-05-21T07:08:29.394Z,724.00
2018-05-21T07:09:29.390Z,728.00
2018-05-21T07:10:29.369Z,740.00
2018-05-21T07:11:29.365Z,744.00
2018-05-21T07:12:29.354Z,748.00
2018-05-21T07:13:29.338Z,756.00
2018-05-21T07:14:29.336Z,756.00
2018-05-21T07:15:29.318Z,760.00
2018-05-21T07:16:29.309Z,768.00
2018-05-21T07:17:29.304Z,768.00
2018-05-21T07:18:29.287Z,776.00
2018-05-21T07:19:29.284Z,780.00
2018-05-21T07:20:29.266Z,796.00
2018-05-21T07:21:29.265Z,812.00
2018-05-21T07:22:29.247Z,772.00
2018-05-21T07:23:29.238Z,796.00
2018-05-21T07:24:29.281Z,804.00
2018-05-21T07:25:29.216Z,812.00
2018-05-21T07:26:29.208Z,820.00
2018-05-21T07:27:29.193Z,824.00
2018-05-21T07:28:29.189Z,832.00
2018-05-21T07:29:29.183Z,840.00
2018-05-21T07:30:29.169Z,840.00
2018-05-21T07:31:29.215Z,856.00
2018-05-21T07:32:29.188Z,852.00
2018-05-21T07:33:29.140Z,860.00
2018-05-21T07:34:29.124Z,860.00
2018-05-21T07:35:29.118Z,868.00
2018-05-21T07:36:29.112Z,876.00
2018-05-21T07:37:29.100Z,888.00
2018-05-21T07:38:29.093Z,816.00
2018-05-21T07:39:29.088Z,900.00
2018-05-21T07:40:29.072Z,900.00
2018-05-21T07:41:29.060Z,912.00
2018-05-21T07:42:29.055Z,920.00
2018-05-21T07:43:29.047Z,928.00
2018-05-21T07:44:29.031Z,932.00
2018-05-21T07:45:29.037Z,936.00
2018-05-21T07:46:29.015Z,944.00
2018-05-21T07:47:29.009Z,956.00
2018-05-21T07:48:29.000Z,964.00
2018-05-21T07:49:28.990Z,968.00
2018-05-21T07:50:28.986Z,976.00
2018-05-21T07:51:29.005Z,980.00
2018-05-21T07:52:28.958Z,988.00
2018-05-21T07:53:28.948Z,988.00
2018-05-21T07:54:28.944Z,992.00
2018-05-21T07:55:28.931Z,996.00
2018-05-21T07:56:28.914Z,996.00
2018-05-21T07:57:28.912Z,1004.00
2018-05-21T07:58:28.902Z,1012.00
2018-05-21T07:59:28.896Z,1016.00
2018-05-21T08:00:28.887Z,1028.00
2018-05-21T08:01:28.875Z,1032.00
2018-05-21T08:02:28.872Z,1040.00
2018-05-21T08:03:28.857Z,1008.00
2018-05-21T08:04:28.851Z,1020.00
2018-05-21T08:05:28.837Z,1004.00
2018-05-21T08:06:28.829Z,1076.00
2018-05-21T08:07:28.823Z,1072.00
2018-05-21T08:08:28.814Z,1076.00
2018-05-21T08:09:28.797Z,1076.00
2018-05-21T08:10:28.796Z,1080.00
2018-05-21T08:11:28.782Z,1092.00
2018-05-21T08:12:28.779Z,1092.00
2018-05-21T08:13:28.766Z,1092.00
2018-05-21T08:14:28.775Z,1092.00
2018-05-21T08:15:28.748Z,1096.00
2018-05-21T08:16:28.741Z,1104.00
2018-05-21T08:17:28.733Z,1108.00
2018-05-21T08:18:28.725Z,1108.00
2018-05-21T08:19:28.716Z,1112.00
2018-05-21T08:20:28.707Z,1116.00
2018-05-21T08:21:28.699Z,1120.00
2018-05-21T08:22:28.687Z,1128.00
2018-05-21T08:23:28.681Z,1144.00
2018-05-21T08:24:28.676Z,1056.00
2018-05-21T08:25:28.660Z,1052.00
2018-05-21T08:26:28.647Z,1088.00
2018-05-21T08:27:28.649Z,1172.00
2018-05-21T08:28:28.636Z,1164.00
2018-05-21T08:29:28.626Z,1168.00
2018-05-21T08:30:28.616Z,1168.00
2018-05-21T08:31:28.611Z,1168.00
2018-05-21T08:32:28.599Z,1172.00
2018-05-21T08:33:28.596Z,1184.00
2018-05-21T08:34:28.583Z,1196.00
2018-05-21T08:35:28.575Z,1200.00
2018-05-21T08:36:28.567Z,1200.00
2018-05-21T08:37:28.564Z,1196.00
2018-05-21T08:38:28.548Z,1196.00
2018-05-21T08:39:28.540Z,1200.00
2018-05-21T08:40:28.529Z,1196.00
2018-05-21T08:41:28.531Z,1192.00
2018-05-21T08:42:28.519Z,1192.00
2018-05-21T08:43:28.503Z,1200.00
2018-05-21T08:44:28.497Z,1212.00
2018-05-21T08:45:28.487Z,1216.00
2018-05-21T08:46:28.477Z,1216.00
2018-05-21T08:47:28.472Z,1232.00
2018-05-21T08:48:28.468Z,1228.00
2018-05-21T08:49:28.454Z,1224.00
2018-05-21T08:50:28.444Z,1216.00
2018-05-21T08:51:28.436Z,1212.00
2018-05-21T08:52:28.508Z,1216.00
2018-05-21T08:53:28.422Z,1216.00
2018-05-21T08:54:28.410Z,1216.00
2018-05-21T08:55:28.409Z,1228.00
2018-05-21T08:56:28.479Z,1236.00
2018-05-21T08:57:28.387Z,1240.00
2018-05-21T08:58:28.383Z,1248.00
2018-05-21T08:59:28.367Z,1256.00
2018-05-21T09:00:28.429Z,1260.00
2018-05-21T09:01:28.353Z,1248.00
2018-05-21T09:02:28.345Z,1244.00
2018-05-21T09:03:28.338Z,1244.00
2018-05-21T09:04:28.326Z,1248.00
2018-05-21T09:05:28.318Z,1248.00
2018-05-21T09:06:28.320Z,1244.00
2018-05-21T09:07:28.304Z,1232.00
2018-05-21T09:08:28.299Z,1248.00
2018-05-21T09:09:28.290Z,1252.00
2018-05-21T09:10:28.280Z,1264.00
2018-05-21T09:11:28.271Z,1264.00
2018-05-21T09:12:28.306Z,1268.00
2018-05-21T09:13:28.251Z,1272.00
2018-05-21T09:14:28.245Z,1276.00
2018-05-21T09:15:28.242Z,1276.00
2018-05-21T09:16:28.275Z,1276.00
2018-05-21T09:17:28.227Z,1276.00
2018-05-21T09:18:28.214Z,1268.00
2018-05-21T09:19:28.211Z,1264.00
2018-05-21T09:20:28.202Z,1264.00
2018-05-21T09:21:28.193Z,1232.00
2018-05-21T09:22:28.187Z,1268.00
2018-05-21T09:23:28.175Z,1268.00
2018-05-21T09:24:28.171Z,1268.00
2018-05-21T09:25:28.163Z,1272.00
2018-05-21T09:26:28.155Z,1276.00
2018-05-21T09:27:28.146Z,1280.00
2018-05-21T09:28:28.136Z,1268.00
2018-05-21T09:29:28.135Z,1272.00
2018-05-21T09:30:28.120Z,1280.00
2018-05-21T09:31:28.183Z,1288.00
2018-05-21T09:32:28.182Z,1284.00
2018-05-21T09:33:28.098Z,1288.00
2018-05-21T09:34:28.095Z,1280.00
2018-05-21T09:35:28.082Z,1272.00
2018-05-21T09:36:28.078Z,1280.00
2018-05-21T09:37:28.069Z,1264.00
2018-05-21T09:38:28.061Z,1260.00
2018-05-21T09:39:28.054Z,1268.00
2018-05-21T09:40:28.049Z,1272.00
2018-05-21T09:41:28.037Z,1276.00
2018-05-21T09:42:28.030Z,1272.00
2018-05-21T09:43:28.024Z,1272.00
2018-05-21T09:44:28.018Z,1280.00
2018-05-21T09:45:28.007Z,1284.00
2018-05-21T09:46:27.996Z,1284.00
2018-05-21T09:47:27.993Z,1292.00
2018-05-21T09:48:27.983Z,1304.00
2018-05-21T09:49:27.978Z,1312.00
2018-05-21T09:50:27.969Z,1312.00
2018-05-21T09:51:27.968Z,1304.00
2018-05-21T09:52:27.955Z,1320.00
2018-05-21T09:53:27.952Z,1340.00
2018-05-21T09:54:27.938Z,1348.00
2018-05-21T09:55:27.936Z,1352.00
2018-05-21T09:56:27.925Z,1356.00
2018-05-21T09:57:27.926Z,1356.00
2018-05-21T09:58:27.911Z,1368.00
2018-05-21T09:59:27.904Z,1376.00
2018-05-21T10:00:27.902Z,1388.00
2018-05-21T10:01:27.887Z,1396.00
2018-05-21T10:02:27.883Z,1412.00
2018-05-21T10:03:27.877Z,1428.00
2018-05-21T10:04:27.871Z,1424.00
2018-05-21T10:05:27.863Z,1416.00
2018-05-21T10:06:27.856Z,1396.00
2018-05-21T10:07:27.838Z,1372.00
2018-05-21T10:08:27.839Z,1368.00
2018-05-21T10:09:27.834Z,1364.00
2018-05-21T10:10:27.822Z,1368.00
2018-05-21T10:11:27.817Z,1376.00
2018-05-21T10:12:27.813Z,1376.00
2018-05-21T10:13:27.810Z,1388.00
2018-05-21T10:14:27.795Z,1392.00
2018-05-21T10:15:27.790Z,1404.00
2018-05-21T10:16:27.791Z,1408.00
2018-05-21T10:17:27.778Z,1416.00
2018-05-21T10:18:27.767Z,1416.00
2018-05-21T10:19:27.812Z,1420.00
2018-05-21T10:20:27.750Z,1448.00
2018-05-21T10:21:27.756Z,1464.00
2018-05-21T10:22:27.752Z,1480.00
2018-05-21T10:23:27.735Z,1480.00
2018-05-21T10:24:27.729Z,1492.00
2018-05-21T10:25:27.723Z,1528.00
2018-05-21T10:26:27.711Z,936.00
2018-05-21T10:27:27.707Z,660.00
2018-05-21T10:28:27.699Z,1576.00
2018-05-21T10:29:27.694Z,1580.00
2018-05-21T10:30:27.687Z,640.00
2018-05-21T10:31:27.679Z,1552.00
2018-05-21T10:32:27.679Z,1576.00
2018-05-21T10:33:27.670Z,1596.00
2018-05-21T10:34:27.659Z,800.00
2018-05-21T10:35:27.654Z,568.00
2018-05-21T10:36:27.648Z,592.00
2018-05-21T10:37:27.640Z,1660.00
2018-05-21T10:38:27.632Z,1696.00
2018-05-21T10:39:27.634Z,1708.00
2018-05-21T10:40:27.624Z,640.00
2018-05-21T10:41:27.611Z,604.00
2018-05-21T10:42:27.603Z,600.00
2018-05-21T10:43:27.595Z,1420.00
2018-05-21T10:44:27.592Z,1664.00
2018-05-21T10:45:27.585Z,832.00
2018-05-21T10:46:27.579Z,596.00
2018-05-21T10:47:27.586Z,556.00
2018-05-21T10:48:27.562Z,548.00
2018-05-21T10:49:27.558Z,552.00
2018-05-21T10:50:27.547Z,556.00
2018-05-21T10:51:27.562Z,560.00
2018-05-21T10:52:27.540Z,556.00
2018-05-21T10:53:27.529Z,544.00
2018-05-21T10:54:27.525Z,540.00
2018-05-21T10:55:27.518Z,556.00
2018-05-21T10:56:27.511Z,576.00
2018-05-21T10:57:27.510Z,596.00
2018-05-21T10:58:27.496Z,620.00
2018-05-21T10:59:27.494Z,684.00
2018-05-21T11:00:27.480Z,1540.00
2018-05-21T11:01:27.480Z,1040.00
2018-05-21T11:02:27.470Z,1324.00
2018-05-21T11:03:27.468Z,1900.00
2018-05-21T11:04:27.453Z,1880.00
2018-05-21T11:05:27.449Z,740.00
2018-05-21T11:06:27.439Z,940.00
2018-05-21T11:07:27.439Z,1792.00
2018-05-21T11:08:27.427Z,1740.00
2018-05-21T11:09:27.417Z,1840.00
2018-05-21T11:10:27.409Z,1800.00
2018-05-21T11:11:27.406Z,1804.00
2018-05-21T11:12:27.402Z,876.00
2018-05-21T11:13:27.400Z,1812.00
2018-05-21T11:14:27.386Z,1820.00
2018-05-21T11:15:27.377Z,1848.00
2018-05-21T11:16:27.387Z,1520.00
2018-05-21T11:17:27.370Z,1712.00
2018-05-21T11:18:27.368Z,1836.00
2018-05-21T11:19:27.352Z,1912.00
2018-05-21T11:20:27.348Z,1968.00
2018-05-21T11:21:27.337Z,1784.00
2018-05-21T11:22:27.331Z,1956.00
2018-05-21T11:23:27.326Z,1944.00
2018-05-21T11:24:27.321Z,1952.00
2018-05-21T11:25:27.320Z,1960.00
2018-05-21T11:26:27.306Z,1972.00
2018-05-21T11:27:27.301Z,2024.00
2018-05-21T11:28:27.291Z,792.00
2018-05-21T11:29:27.291Z,1064.00
2018-05-21T11:30:27.285Z,1580.00
2018-05-21T11:31:27.279Z,1236.00
2018-05-21T11:32:27.278Z,1996.00
2018-05-21T11:33:27.268Z,1976.00
2018-05-21T11:34:27.263Z,1968.00
2018-05-21T11:35:27.252Z,1976.00
2018-05-21T11:36:27.251Z,1980.00
2018-05-21T11:37:27.246Z,1968.00
2018-05-21T11:38:27.239Z,1984.00
2018-05-21T11:39:27.233Z,2000.00
2018-05-21T11:40:27.226Z,1996.00
2018-05-21T11:41:27.222Z,1988.00
2018-05-21T11:42:27.211Z,1992.00
2018-05-21T11:43:27.205Z,1992.00
2018-05-21T11:44:27.205Z,2000.00
2018-05-21T11:45:27.195Z,1968.00
2018-05-21T11:46:27.229Z,1980.00
2018-05-21T11:47:27.186Z,1972.00
2018-05-21T11:48:27.179Z,1976.00
2018-05-21T11:49:27.171Z,2000.00
2018-05-21T11:50:27.164Z,2008.00
2018-05-21T11:51:27.164Z,2020.00
2018-05-21T11:52:27.155Z,2020.00
2018-05-21T11:53:27.152Z,2044.00
2018-05-21T11:54:27.146Z,2064.00
2018-05-21T11:55:27.143Z,2080.00
2018-05-21T11:56:27.133Z,2100.00
2018-05-21T11:57:27.125Z,2112.00
2018-05-21T11:58:27.121Z,2124.00
2018-05-21T11:59:27.120Z,2136.00
2018-05-21T12:00:27.112Z,2160.00
2018-05-21T12:01:27.112Z,2176.00
2018-05-21T12:02:27.104Z,2196.00
2018-05-21T12:03:27.096Z,2220.00
2018-05-21T12:04:27.094Z,2276.00
2018-05-21T12:05:27.084Z,724.00
2018-05-21T12:06:27.080Z,752.00
2018-05-21T12:07:27.077Z,760.00
2018-05-21T12:08:27.071Z,816.00
2018-05-21T12:09:27.065Z,848.00
2018-05-21T12:10:27.055Z,1832.00
2018-05-21T12:11:27.058Z,1472.00
2018-05-21T12:12:27.047Z,912.00
2018-05-21T12:13:27.127Z,840.00
2018-05-21T12:14:27.039Z,888.00
2018-05-21T12:15:27.033Z,892.00
2018-05-21T12:16:27.026Z,848.00
2018-05-21T12:17:27.022Z,900.00
2018-05-21T12:18:27.018Z,896.00
2018-05-21T12:19:27.020Z,916.00
2018-05-21T12:20:27.013Z,968.00
2018-05-21T12:21:27.008Z,932.00
2018-05-21T12:22:27.036Z,952.00
2018-05-21T12:23:26.988Z,1248.00
2018-05-21T12:24:26.981Z,980.00
2018-05-21T12:25:26.979Z,960.00
2018-05-21T12:26:26.980Z,1120.00
2018-05-21T12:27:26.969Z,1612.00
2018-05-21T12:28:26.963Z,1160.00
2018-05-21T12:29:26.959Z,1524.00
2018-05-21T12:30:26.949Z,1368.00
2018-05-21T12:31:26.947Z,1048.00
2018-05-21T12:32:26.942Z,1048.00
2018-05-21T12:33:26.938Z,1112.00
2018-05-21T12:34:26.928Z,1240.00
2018-05-21T12:35:26.922Z,1044.00
2018-05-21T12:36:26.929Z,1148.00
2018-05-21T12:37:26.912Z,2116.00
2018-05-21T12:38:26.908Z,1060.00